Time;durP1;ratioP1;P1;durP2;ratioP2;P2;SDS_P1;SDS_P2;PMS_P1;PMS_P2;Temp;Humidity;BMP_temperature;BMP_pressure;BME280_temperature;BME280_humidity;BME280_pressure;Samples;Min_cycle;Max_cycle;Signal;HPM_P1;HPM_P2
2023/04/15 00:02:17;;;;;;;4.73;0.93;;;;;;;16.82;52.22;95681.84;10332794;28;20283;-27
2023/04/15 00:07:17;;;;;;;3.00;0.90;;;;;;;16.82;55.18;95674.25;10334764;28;20058;-28
2023/04/15 00:12:17;;;;;;;2.87;1.00;;;;;;;16.83;55.06;95668.34;10336573;28;20028;-28
2023/04/15 00:17:18;;;;;;;2.83;0.97;;;;;;;16.81;48.26;95658.22;10329440;28;20046;-27
2023/04/15 00:22:18;;;;;;;1.90;1.07;;;;;;;16.79;47.02;95664.16;10331142;28;20049;-27
2023/04/15 00:27:19;;;;;;;2.57;0.57;;;;;;;16.75;46.32;95649.88;10328042;28;20037;-28
2023/04/15 00:32:19;;;;;;;2.13;0.85;;;;;;;16.78;45.98;95665.00;10335665;28;20034;-28
2023/04/15 00:37:20;;;;;;;1.23;0.47;;;;;;;16.79;45.74;95667.53;10333791;28;20026;-28
2023/04/15 00:42:20;;;;;;;3.33;1.00;;;;;;;16.79;50.17;95657.41;10318183;28;20049;-27
2023/04/15 00:47:21;;;;;;;1.27;0.65;;;;;;;16.81;50.14;95655.72;10335424;28;20093;-28
2023/04/15 00:52:21;;;;;;;1.98;1.15;;;;;;;16.79;48.17;95657.41;10330734;28;20034;-28
2023/04/15 00:57:22;;;;;;;1.77;0.87;;;;;;;16.79;46.71;95661.63;10328017;28;20117;-28
2023/04/15 01:02:23;;;;;;;1.77;0.77;;;;;;;16.77;46.80;95658.28;10341873;28;20519;-28
2023/04/15 01:07:23;;;;;;;2.92;0.77;;;;;;;16.76;46.32;95656.63;10330007;28;20053;-28
2023/04/15 01:12:26;;;;;;;1.95;0.80;;;;;;;16.75;46.50;95655.75;10325684;28;20029;-29
2023/04/15 01:17:27;;;;;;;2.70;0.77;;;;;;;16.79;53.91;95654.03;10341008;28;20026;-28
2023/04/15 01:22:27;;;;;;;0.88;0.55;;;;;;;16.81;54.68;95644.78;10329479;28;20027;-28
2023/04/15 01:27:28;;;;;;;1.80;0.70;;;;;;;16.80;50.96;95638.03;10326002;28;20026;-28
2023/04/15 01:32:29;;;;;;;1.33;0.82;;;;;;;16.77;48.54;95627.97;10337826;28;20034;-28
2023/04/15 01:37:31;;;;;;;1.83;0.70;;;;;;;16.74;46.73;95635.59;10333021;28;20027;-28
2023/04/15 01:42:31;;;;;;;1.30;0.60;;;;;;;16.78;46.35;95639.72;10322514;28;20039;-29
2023/04/15 01:47:32;;;;;;;4.10;0.88;;;;;;;16.76;46.35;95638.91;10333337;28;20042;-28
2023/04/15 01:52:32;;;;;;;2.33;1.20;;;;;;;16.73;45.73;95635.59;10352886;28;20068;-28
2023/04/15 01:57:33;;;;;;;1.17;0.50;;;;;;;16.73;45.61;95634.72;10345690;28;20137;-28
2023/04/15 02:02:34;;;;;;;1.27;0.65;;;;;;;16.74;45.36;95630.53;10332375;28;20043;-28
2023/04/15 02:07:35;;;;;;;0.93;0.40;;;;;;;16.74;45.50;95633.06;10340276;28;20132;-28
2023/04/15 02:12:35;;;;;;;2.83;0.77;;;;;;;16.73;45.52;95632.19;10337515;28;20040;-28
2023/04/15 02:17:36;;;;;;;0.73;0.40;;;;;;;16.73;45.64;95633.91;10339379;28;20034;-28
2023/04/15 02:22:37;;;;;;;1.30;0.55;;;;;;;16.75;47.92;95627.13;10341303;28;20703;-28
2023/04/15 02:27:37;;;;;;;1.83;0.40;;;;;;;16.78;52.36;95633.00;10340507;28;20053;-28
2023/04/15 02:32:38;;;;;;;1.07;0.40;;;;;;;16.78;54.03;95630.47;10345850;28;20030;-28
2023/04/15 02:37:44;;;;;;;1.00;0.75;;;;;;;16.79;52.96;95632.16;10340726;28;20034;-28
2023/04/15 02:42:45;;;;;;;3.70;0.80;;;;;;;16.77;52.53;95622.91;10330421;28;20102;-29
2023/04/15 02:47:49;;;;;;;1.27;0.60;;;;;;;16.77;53.27;95627.13;10346053;28;20201;-28
2023/04/15 02:52:50;;;;;;;1.13;0.55;;;;;;;16.79;51.91;95631.28;10350893;28;20083;-28
2023/04/15 02:57:51;;;;;;;1.15;0.47;;;;;;;16.76;53.03;95631.34;10342125;28;20030;-28
2023/04/15 03:03:03;;;;;;;1.00;0.55;;;;;;;16.76;52.46;95623.75;10321794;28;20041;-28
2023/04/15 03:08:04;;;;;;;1.25;0.70;;;;;;;16.77;52.13;95629.66;10350731;28;20026;-28
2023/04/15 03:13:04;;;;;;;1.17;0.60;;;;;;;16.78;50.25;95624.56;10334636;28;20025;-27
2023/04/15 03:18:05;;;;;;;2.00;0.55;;;;;;;16.77;52.26;95622.09;10356572;28;20026;-29
2023/04/15 03:23:07;;;;;;;1.08;0.50;;;;;;;16.76;52.71;95616.19;10340538;28;20084;-29
2023/04/15 03:28:08;;;;;;;1.50;0.63;;;;;;;16.74;52.87;95617.88;10321480;28;20034;-28
2023/04/15 03:33:08;;;;;;;1.10;0.70;;;;;;;16.73;51.14;95611.16;10341197;28;20026;-28
2023/04/15 03:38:09;;;;;;;2.03;0.60;;;;;;;16.73;52.59;95609.47;10331463;28;20452;-28
2023/04/15 03:43:10;;;;;;;1.83;0.77;;;;;;;16.77;53.83;95605.22;10347694;28;20034;-28
2023/04/15 03:48:10;;;;;;;1.30;0.52;;;;;;;16.77;54.26;95609.44;10334013;28;20030;-28
2023/04/15 03:53:11;;;;;;;1.40;0.70;;;;;;;16.77;53.59;95607.75;10332365;28;20505;-28
2023/04/15 03:58:11;;;;;;;1.13;0.60;;;;;;;16.74;52.84;95612.84;10350896;28;20053;-28
2023/04/15 04:03:12;;;;;;;0.90;0.43;;;;;;;16.74;52.24;95612.84;10333541;28;20034;-28
2023/04/15 04:08:12;;;;;;;1.15;0.50;;;;;;;16.74;50.71;95607.78;10328423;28;20046;-27
2023/04/15 04:13:13;;;;;;;1.00;0.60;;;;;;;16.74;51.56;95607.78;10332644;28;20029;-30
2023/04/15 04:18:13;;;;;;;0.80;0.50;;;;;;;16.74;49.90;95607.78;10339588;28;20112;-30
2023/04/15 04:23:13;;;;;;;1.47;0.40;;;;;;;16.75;49.84;95610.28;10330765;28;20030;-30
2023/04/15 04:28:14;;;;;;;0.90;0.50;;;;;;;16.74;48.62;95611.13;10332563;28;20412;-31
2023/04/15 04:33:14;;;;;;;2.43;0.43;;;;;;;16.74;48.38;95610.31;10348711;28;20041;-31
2023/04/15 04:38:17;;;;;;;1.52;0.40;;;;;;;16.73;47.79;95612.84;10346873;28;20030;-31
2023/04/15 04:43:18;;;;;;;1.70;0.43;;;;;;;16.73;47.31;95622.94;10335533;28;20069;-30
2023/04/15 04:48:18;;;;;;;0.90;0.50;;;;;;;16.73;46.92;95626.31;10338683;28;20060;-30
2023/04/15 04:53:19;;;;;;;3.22;0.80;;;;;;;16.74;52.15;95628.00;10321333;28;20030;-30
2023/04/15 04:58:20;;;;;;;1.98;0.70;;;;;;;16.73;53.73;95629.69;10328728;28;20578;-31
2023/04/15 05:03:20;;;;;;;2.78;1.10;;;;;;;16.75;53.42;95640.59;10341639;28;20038;-30
2023/04/15 05:08:21;;;;;;;1.63;0.50;;;;;;;16.73;50.89;95638.97;10320990;28;20030;-30
2023/04/15 05:13:21;;;;;;;2.20;0.50;;;;;;;16.73;51.39;95637.25;10341112;28;20049;-31
2023/04/15 05:18:21;;;;;;;2.20;0.70;;;;;;;16.77;51.02;95634.72;10326584;28;20282;-31
2023/04/15 05:23:22;;;;;;;4.07;0.60;;;;;;;16.78;49.99;95639.72;10335037;28;20177;-30
2023/04/15 05:28:22;;;;;;;1.03;0.77;;;;;;;16.79;49.78;95644.78;10326557;28;20779;-30
2023/04/15 05:33:23;;;;;;;1.70;0.70;;;;;;;16.80;49.63;95643.94;10341530;28;20035;-30
2023/04/15 05:38:23;;;;;;;1.45;0.65;;;;;;;16.79;49.98;95637.19;10359286;28;20089;-30
2023/04/15 05:43:23;;;;;;;2.83;0.70;;;;;;;16.81;49.04;95635.50;10347910;28;20040;-30
2023/04/15 05:48:24;;;;;;;2.07;0.60;;;;;;;16.82;49.18;95643.91;10340595;28;20084;-30
2023/04/15 05:53:24;;;;;;;3.03;0.53;;;;;;;16.82;50.50;95642.22;10351735;28;20033;-30
2023/04/15 05:58:24;;;;;;;3.53;1.70;;;;;;;16.82;49.63;95641.41;10345381;28;20022;-30
2023/04/15 06:03:25;;;;;;;1.15;0.50;;;;;;;16.83;50.26;95645.59;10339877;28;20391;-30
2023/04/15 06:08:26;;;;;;;1.00;0.70;;;;;;;16.81;52.05;95639.72;10335274;28;20041;-31
2023/04/15 06:13:27;;;;;;;1.92;0.70;;;;;;;16.81;52.45;95635.50;10352137;28;20034;-30
2023/04/15 06:18:27;;;;;;;1.10;0.40;;;;;;;16.82;50.10;95633.81;10361481;28;20030;-31
2023/04/15 06:23:27;;;;;;;2.30;0.93;;;;;;;16.82;51.39;95639.69;10348224;28;20129;-30
2023/04/15 06:28:28;;;;;;;1.98;0.50;;;;;;;16.82;51.00;95636.34;10348527;28;20038;-31
2023/04/15 06:33:28;;;;;;;3.50;0.40;;;;;;;16.84;50.04;95634.63;10328940;28;20037;-31
2023/04/15 06:38:29;;;;;;;1.98;0.70;;;;;;;16.83;50.40;95640.53;10339710;28;20295;-31
2023/04/15 06:43:29;;;;;;;2.00;0.55;;;;;;;16.81;50.21;95638.00;10345154;28;20038;-30
2023/04/15 06:48:30;;;;;;;0.97;0.50;;;;;;;16.82;50.32;95638.88;10342540;28;20505;-31
2023/04/15 06:53:30;;;;;;;3.50;0.70;;;;;;;16.80;51.83;95632.97;10341163;28;20399;-30
2023/04/15 06:58:30;;;;;;;2.13;0.70;;;;;;;16.82;50.27;95636.34;10339946;28;20548;-31
2023/04/15 07:03:31;;;;;;;0.73;0.40;;;;;;;16.80;48.85;95633.81;10344422;28;20134;-30
2023/04/15 07:08:32;;;;;;;0.73;0.50;;;;;;;16.80;49.09;95635.50;10348053;28;20046;-30
2023/04/15 07:13:33;;;;;;;1.20;1.00;;;;;;;16.80;51.33;95631.28;10343667;28;20060;-30
2023/04/15 07:18:33;;;;;;;1.88;1.20;;;;;;;16.86;50.78;95632.91;10335180;28;20038;-30
2023/04/15 07:23:33;;;;;;;2.05;1.77;;;;;;;16.89;49.46;95630.38;10331808;28;20053;-30
2023/04/15 07:28:34;;;;;;;3.50;1.97;;;;;;;16.88;52.58;95623.59;10337892;28;20045;-30
2023/04/15 07:33:34;;;;;;;2.33;2.13;;;;;;;16.85;51.45;95626.19;10342146;28;20038;-31
2023/04/15 07:38:35;;;;;;;2.87;1.80;;;;;;;16.81;49.79;95630.44;10338821;28;20041;-30
2023/04/15 07:43:35;;;;;;;2.23;1.67;;;;;;;16.82;50.99;95633.81;10323289;28;20319;-30
2023/04/15 07:48:35;;;;;;;3.03;2.27;;;;;;;16.81;51.09;95635.50;10341276;28;20037;-30
2023/04/15 07:53:36;;;;;;;2.97;2.03;;;;;;;16.80;49.23;95630.44;10322442;28;20370;-30
2023/04/15 07:58:36;;;;;;;3.03;1.90;;;;;;;16.79;47.12;95631.28;10340285;28;20289;-31
2023/04/15 08:03:37;;;;;;;2.33;1.80;;;;;;;16.79;46.37;95636.34;10338930;28;20367;-30
2023/04/15 08:08:37;;;;;;;2.80;1.50;;;;;;;16.78;46.45;95639.72;10329372;28;20092;-30
2023/04/15 08:13:37;;;;;;;3.33;1.30;;;;;;;16.76;46.58;95641.44;10333237;28;20034;-31
2023/04/15 08:18:37;;;;;;;3.33;1.60;;;;;;;16.73;46.12;95644.03;10333017;28;20034;-31
2023/04/15 08:23:38;;;;;;;3.50;1.53;;;;;;;16.77;45.69;95659.13;10328948;28;20409;-30
2023/04/15 08:28:41;;;;;;;4.60;1.85;;;;;;;16.77;46.47;95658.28;10329572;28;20038;-30
2023/04/15 08:33:41;;;;;;;3.88;2.08;;;;;;;16.82;51.10;95661.63;10333162;28;20049;-30
2023/04/15 08:38:45;;;;;;;4.00;2.00;;;;;;;16.84;48.80;95660.72;10319810;28;20792;-30
2023/04/15 08:43:52;;;;;;;3.25;1.20;;;;;;;16.77;47.38;95662.53;10323526;28;20319;-31
2023/04/15 08:48:55;;;;;;;;;;;;;;;16.80;46.55;95668.34;10331869;28;20038;-31
2023/04/15 08:53:56;;;;;;;5.18;1.67;;;;;;;16.79;46.27;95677.63;10338309;28;19918;-30
2023/04/15 08:58:56;;;;;;;2.90;1.73;;;;;;;16.81;47.16;95675.94;10323511;28;20037;-30
2023/04/15 09:03:58;;;;;;;4.10;1.55;;;;;;;16.82;46.94;95682.66;10333409;28;20088;-30
2023/04/15 09:08:59;;;;;;;4.30;1.88;;;;;;;16.77;47.36;95681.03;10335934;28;20038;-31
2023/04/15 09:13:59;;;;;;;2.50;1.48;;;;;;;16.87;47.74;95687.66;10326628;28;20097;-31
2023/04/15 09:19:01;;;;;;;4.60;1.50;;;;;;;16.74;48.66;95688.66;10385142;23;20045;-25
2023/04/15 09:24:02;;;;;;;1.90;1.20;;;;;;;16.75;48.03;95685.28;10383328;28;20049;-26
2023/04/15 09:29:08;;;;;;;3.60;1.63;;;;;;;16.81;47.39;95695.31;10392149;28;20065;-26
2023/04/15 09:34:08;;;;;;;5.45;1.42;;;;;;;16.71;49.36;95698.78;10385766;28;20048;-25
2023/04/15 09:39:09;;;;;;;10.90;1.52;;;;;;;16.70;49.39;95707.22;10384117;28;20026;-26
2023/04/15 09:44:25;;;;;;;16.60;4.40;;;;;;;16.82;49.57;95714.69;10402096;28;20034;-27
2023/04/15 09:49:26;;;;;;;10.07;2.22;;;;;;;16.84;49.60;95710.44;10407740;23;20037;-30
2023/04/15 09:54:37;;;;;;;10.43;1.80;;;;;;;16.85;49.11;95718.03;10383705;28;20492;-29
2023/04/15 09:59:37;;;;;;;4.97;1.42;;;;;;;16.85;48.25;95717.19;10388205;28;20033;-29
2023/04/15 10:04:40;;;;;;;5.97;1.70;;;;;;;16.88;48.29;95724.72;10366406;28;20045;-29
2023/04/15 10:09:44;;;;;;;8.52;1.75;;;;;;;16.93;49.29;95728.06;10364403;28;20049;-30
2023/04/15 10:14:51;;;;;;;4.05;1.83;;;;;;;16.92;48.58;95721.31;10379317;28;20120;-29
2023/04/15 10:19:53;;;;;;;11.23;1.77;;;;;;;16.95;48.02;95724.66;10369601;28;20033;-30
2023/04/15 10:24:55;;;;;;;13.15;2.05;;;;;;;16.96;48.64;95720.44;10366774;28;20039;-29
2023/04/15 10:29:56;;;;;;;12.35;2.08;;;;;;;16.93;50.01;95726.38;10396807;28;20500;-29
2023/04/15 10:34:57;;;;;;;8.75;1.60;;;;;;;16.94;49.11;95737.31;10385083;28;20029;-29
2023/04/15 10:39:57;;;;;;;8.50;2.00;;;;;;;16.94;49.75;95743.22;10376775;28;20041;-30
2023/04/15 10:44:59;;;;;;;7.05;1.98;;;;;;;16.94;50.29;95737.31;10344595;28;20489;-29
2023/04/15 10:50:01;;;;;;;6.65;2.05;;;;;;;16.92;51.65;95744.06;10366961;28;20121;-29
2023/04/15 10:55:11;;;;;;;4.90;1.92;;;;;;;16.95;53.60;95752.47;10373994;28;20506;-29
2023/04/15 11:00:15;;;;;;;5.30;1.88;;;;;;;17.03;53.86;95752.38;10384624;28;20504;-29
2023/04/15 11:05:17;;;;;;;5.75;1.95;;;;;;;17.04;53.70;95759.13;10388864;28;20045;-30
2023/04/15 11:10:17;;;;;;;2.63;1.42;;;;;;;16.97;52.85;95754.97;10387962;28;20068;-29
2023/04/15 11:15:32;;;;;;;5.25;1.70;;;;;;;16.95;51.65;95764.25;10379683;28;20116;-29
2023/04/15 11:20:32;;;;;;;2.95;1.40;;;;;;;16.93;51.46;95766.81;10378174;28;20042;-29
2023/04/15 11:25:34;;;;;;;4.40;1.80;;;;;;;16.95;51.77;95779.44;10371958;28;20033;-29
2023/04/15 11:30:36;;;;;;;2.22;1.92;;;;;;;16.95;51.38;95784.50;10376715;28;20049;-29
2023/04/15 11:35:36;;;;;;;5.10;1.42;;;;;;;16.94;51.74;95785.34;10380678;28;20045;-30
2023/04/15 11:40:40;;;;;;;3.50;1.37;;;;;;;16.94;51.35;95803.91;10378462;28;20037;-29
2023/04/15 11:46:00;;;;;;;4.25;1.88;;;;;;;16.93;51.56;95803.91;10380486;28;20300;-29
2023/04/15 11:51:05;;;;;;;2.08;1.52;;;;;;;16.94;50.80;95815.69;10380409;28;20049;-29
2023/04/15 11:56:08;;;;;;;2.95;1.30;;;;;;;16.94;50.51;95818.22;10369554;28;20112;-30
2023/04/15 12:01:09;;;;;;;2.45;1.40;;;;;;;16.94;50.24;95830.84;10388046;28;20058;-29
2023/04/15 12:06:33;;;;;;;1.75;1.40;;;;;;;16.91;51.67;95844.34;10384562;28;20488;-28
2023/04/15 12:11:41;;;;;;;4.43;1.85;;;;;;;17.05;54.61;95844.22;10377112;28;20049;-29
2023/04/15 12:16:45;;;;;;;3.33;1.90;;;;;;;17.10;55.95;95842.50;10386550;28;20160;-28
2023/04/15 12:21:47;;;;;;;1.98;1.38;;;;;;;17.01;52.51;95852.72;10383695;28;20076;-29
2023/04/15 12:26:56;;;;;;;3.88;1.20;;;;;;;16.97;50.99;95858.63;10383682;28;20403;-29
2023/04/15 12:31:58;;;;;;;4.25;1.33;;;;;;;16.95;50.78;95861.19;10388372;28;20049;-30
2023/04/15 12:37:01;;;;;;;3.30;1.35;;;;;;;16.97;50.33;95866.22;10385750;28;20558;-29
2023/04/15 12:42:03;;;;;;;2.88;0.95;;;;;;;16.95;51.65;95865.38;10394132;28;20036;-29
2023/04/15 12:47:04;;;;;;;5.50;1.70;;;;;;;16.91;52.33;95876.41;10383974;28;20537;-30
2023/04/15 12:52:04;;;;;;;4.97;1.50;;;;;;;16.91;50.51;95881.44;10383220;28;20430;-29
2023/04/15 12:57:04;;;;;;;12.43;1.90;;;;;;;16.93;51.85;95883.13;10360520;28;20046;-29
2023/04/15 13:02:05;;;;;;;3.70;1.50;;;;;;;16.91;50.35;95894.09;10374047;28;20048;-29
2023/04/15 13:07:05;;;;;;;5.85;1.58;;;;;;;16.91;49.91;95901.69;10375459;28;20095;-29
2023/04/15 13:12:06;;;;;;;2.30;1.53;;;;;;;16.93;49.93;95913.47;10366145;28;20034;-29
2023/04/15 13:17:09;;;;;;;5.88;1.40;;;;;;;16.93;50.44;95918.53;10375516;28;20385;-30
2023/04/15 13:22:10;;;;;;;3.20;1.33;;;;;;;17.04;55.26;95920.94;10382313;28;20515;-29
2023/04/15 13:27:10;;;;;;;3.58;1.63;;;;;;;17.09;56.34;95929.34;10371835;28;20033;-29
2023/04/15 13:32:11;;;;;;;4.07;1.83;;;;;;;17.07;53.02;95920.94;10379323;28;20038;-29
2023/04/15 13:37:11;;;;;;;4.35;2.05;;;;;;;17.03;50.44;95934.44;10365754;28;20034;-29
2023/04/15 13:42:11;;;;;;;3.93;1.30;;;;;;;17.03;51.25;95939.50;10358098;28;20377;-29
2023/04/15 13:47:13;;;;;;;8.30;1.57;;;;;;;17.05;50.18;95940.31;10360245;28;20076;-29
2023/04/15 13:52:14;;;;;;;6.35;1.30;;;;;;;17.07;50.24;95946.22;10376944;28;20824;-29
2023/04/15 13:57:14;;;;;;;3.80;1.20;;;;;;;16.95;51.34;95953.88;10395488;23;20045;-25
2023/04/15 14:02:15;;;;;;;3.97;1.15;;;;;;;16.98;50.14;95952.19;10382296;28;20045;-25
2023/04/15 14:07:15;;;;;;;8.30;1.77;;;;;;;16.95;49.36;95951.34;10389229;28;20034;-25
2023/04/15 14:12:16;;;;;;;3.97;1.65;;;;;;;16.98;48.99;95951.34;10382411;28;20535;-25
2023/04/15 14:17:16;;;;;;;6.80;1.40;;;;;;;17.01;48.85;95961.44;10421450;22;20409;-30
2023/04/15 14:22:17;;;;;;;12.33;3.57;;;;;;;16.93;49.99;95963.16;10365534;28;20129;-30
2023/04/15 14:27:18;;;;;;;5.95;1.58;;;;;;;17.04;49.39;95976.56;10385359;28;20359;-30
2023/04/15 14:32:18;;;;;;;5.78;1.30;;;;;;;17.08;54.17;95978.25;10393936;28;20114;-30
2023/04/15 14:37:19;;;;;;;5.57;1.42;;;;;;;17.12;56.52;95984.97;10386731;28;20075;-30
2023/04/15 14:42:19;;;;;;;3.33;1.17;;;;;;;17.14;57.75;95993.41;10395441;28;20325;-30
2023/04/15 14:47:20;;;;;;;2.55;0.85;;;;;;;17.10;50.68;95996.78;10414163;28;20838;-30
2023/04/15 14:52:20;;;;;;;2.73;1.30;;;;;;;17.10;49.68;95999.31;10378354;28;20416;-30
2023/04/15 14:57:20;;;;;;;3.17;1.07;;;;;;;17.08;49.24;96008.59;10386122;28;20027;-30
2023/04/15 15:02:21;;;;;;;5.80;1.57;;;;;;;17.04;51.24;96009.44;10368101;28;20492;-30
2023/04/15 15:07:22;;;;;;;6.70;1.60;;;;;;;17.07;49.96;96014.50;10371285;28;20508;-30
2023/04/15 15:12:22;;;;;;;5.57;1.30;;;;;;;17.02;51.58;96023.78;10357690;28;20303;-30
2023/04/15 15:17:23;;;;;;;2.80;1.00;;;;;;;17.04;51.12;96017.88;10366170;28;20593;-30
2023/04/15 15:22:24;;;;;;;7.32;1.63;;;;;;;17.01;50.62;96033.09;10372371;23;20439;-25
2023/04/15 15:27:25;;;;;;;5.93;2.17;;;;;;;17.03;50.35;96030.53;10361869;28;20042;-25
2023/04/15 15:32:25;;;;;;;6.75;1.80;;;;;;;17.03;49.86;96035.59;10342132;28;20030;-26
2023/04/15 15:37:26;;;;;;;5.67;1.50;;;;;;;17.04;49.62;96042.31;10332234;28;20031;-25
2023/04/15 15:42:30;;;;;;;10.23;4.30;;;;;;;17.11;57.13;96054.94;10321014;28;20041;-25
2023/04/15 15:47:30;;;;;;;12.95;4.43;;;;;;;17.15;57.81;96060.84;10327590;28;20530;-24
2023/04/15 15:52:31;;;;;;;8.70;3.35;;;;;;;17.16;57.86;96070.09;10383978;23;20119;-26
2023/04/15 15:57:31;;;;;;;5.87;1.30;;;;;;;17.09;51.07;96070.97;10359614;28;20064;-26
2023/04/15 16:02:32;;;;;;;4.97;1.77;;;;;;;17.06;50.09;96081.94;10354807;28;20301;-26
2023/04/15 16:07:32;;;;;;;4.22;1.60;;;;;;;17.05;49.87;96084.47;10329605;28;20034;-25
2023/04/15 16:12:33;;;;;;;4.80;1.90;;;;;;;17.01;50.65;96095.44;10326649;28;20622;-26
2023/04/15 16:17:34;;;;;;;3.10;1.77;;;;;;;17.02;49.93;96089.53;10343704;28;20041;-25
2023/04/15 16:22:34;;;;;;;7.90;2.33;;;;;;;17.03;51.15;96091.22;10344293;28;20046;-25
2023/04/15 16:27:35;;;;;;;4.07;1.80;;;;;;;17.04;49.23;96103.00;10380689;22;20050;-32
2023/04/15 16:32:36;;;;;;;4.07;1.30;;;;;;;17.03;49.32;96106.38;10366497;28;20443;-32
2023/04/15 16:37:36;;;;;;;3.50;1.70;;;;;;;17.01;49.58;96114.00;10327736;28;20045;-33
2023/04/15 16:42:36;;;;;;;2.97;1.87;;;;;;;17.02;49.58;96112.31;10327844;28;20026;-32
2023/04/15 16:47:37;;;;;;;4.32;1.33;;;;;;;17.02;49.17;96130.84;10327776;28;20285;-32
2023/04/15 16:52:37;;;;;;;5.40;2.47;;;;;;;17.06;55.57;96136.75;10332117;28;20448;-32
2023/04/15 16:57:37;;;;;;;6.07;2.10;;;;;;;17.12;55.49;96151.88;10325870;28;20428;-32
2023/04/15 17:02:38;;;;;;;5.93;2.70;;;;;;;17.10;54.58;96163.69;10326834;28;20042;-32
2023/04/15 17:07:38;;;;;;;5.63;2.53;;;;;;;17.00;52.25;96162.03;10327348;28;20030;-32
2023/04/15 17:12:39;;;;;;;8.00;2.03;;;;;;;17.00;51.49;96169.63;10330154;28;20041;-32
2023/04/15 17:17:39;;;;;;;7.05;1.92;;;;;;;17.01;50.54;96173.84;10324068;28;20039;-32
2023/04/15 17:22:40;;;;;;;7.53;1.85;;;;;;;17.00;52.18;96184.81;10325882;28;20050;-32
2023/04/15 17:27:40;;;;;;;4.53;2.20;;;;;;;16.97;50.70;96192.38;10329397;28;20424;-32
2023/04/15 17:32:40;;;;;;;5.60;2.00;;;;;;;16.94;51.23;96202.50;10338387;28;20943;-32
2023/04/15 17:37:41;;;;;;;3.53;1.67;;;;;;;17.00;50.36;96205.03;10339201;28;20304;-32
2023/04/15 17:42:41;;;;;;;4.87;2.03;;;;;;;16.93;51.42;96213.47;10330562;28;20038;-33
2023/04/15 17:47:42;;;;;;;8.00;1.55;;;;;;;16.97;50.08;96221.03;10338269;28;20046;-34
2023/04/15 17:52:42;;;;;;;4.45;1.83;;;;;;;16.93;50.26;96226.13;10334376;28;20080;-32
2023/04/15 17:57:44;;;;;;;7.43;2.03;;;;;;;17.01;55.14;96234.53;10333867;28;20505;-32
2023/04/15 18:02:47;;;;;;;5.07;1.90;;;;;;;17.14;54.75;96251.38;10329634;28;20480;-32
2023/04/15 18:07:50;;;;;;;3.72;2.15;;;;;;;17.16;55.16;96269.91;10329697;28;20506;-33
2023/04/15 18:12:50;;;;;;;4.47;1.40;;;;;;;17.07;51.34;96275.00;10328870;28;20417;-34
2023/04/15 18:17:51;;;;;;;2.20;1.23;;;;;;;17.03;50.48;96283.41;10360389;28;20045;-32
2023/04/15 18:22:51;;;;;;;2.92;1.27;;;;;;;16.98;49.96;96290.19;10350867;28;20033;-32
2023/04/15 18:27:53;;;;;;;3.63;1.80;;;;;;;16.99;50.12;96286.81;10335003;28;20029;-33
2023/04/15 18:32:54;;;;;;;3.63;1.27;;;;;;;16.98;50.21;96296.06;10329908;28;20293;-33
2023/04/15 18:37:56;;;;;;;4.93;1.33;;;;;;;16.98;50.21;96310.41;10333541;28;20042;-32
2023/04/15 18:42:57;;;;;;;3.75;1.50;;;;;;;16.97;49.77;96323.88;10330804;28;20065;-33
2023/04/15 18:47:57;;;;;;;3.33;1.93;;;;;;;16.95;50.22;96336.53;10328311;28;20038;-33
2023/04/15 18:52:57;;;;;;;3.57;1.20;;;;;;;16.95;49.95;96339.06;10327928;28;20550;-33
2023/04/15 18:57:58;;;;;;;2.03;1.10;;;;;;;16.96;49.57;96350.00;10334157;28;20292;-33
2023/04/15 19:02:58;;;;;;;4.27;1.60;;;;;;;16.94;49.60;96350.03;10335617;28;20443;-33
2023/04/15 19:07:59;;;;;;;1.67;1.20;;;;;;;16.94;49.60;96364.34;10335373;28;20085;-32
2023/04/15 19:12:59;;;;;;;3.45;1.80;;;;;;;17.06;53.50;96375.28;10335378;28;20556;-32
2023/04/15 19:18:00;;;;;;;3.35;1.40;;;;;;;17.12;54.18;96366.84;10334706;28;20045;-33
2023/04/15 19:23:01;;;;;;;3.75;2.45;;;;;;;17.11;54.78;96387.94;10339944;28;20041;-32
2023/04/15 19:28:01;;;;;;;2.28;1.33;;;;;;;17.00;50.63;96387.09;10324585;28;20067;-33
2023/04/15 19:33:01;;;;;;;3.13;1.37;;;;;;;17.00;50.20;96399.75;10325890;28;20485;-32
2023/04/15 19:38:04;;;;;;;4.20;1.05;;;;;;;16.98;50.63;96406.50;10326563;28;20301;-33
2023/04/15 19:43:04;;;;;;;2.35;1.10;;;;;;;16.98;49.77;96419.13;10325628;28;20038;-32
2023/04/15 19:48:04;;;;;;;2.50;1.20;;;;;;;16.94;49.70;96415.75;10326369;28;20034;-32
2023/04/15 19:53:05;;;;;;;1.67;1.15;;;;;;;17.01;50.19;96427.56;10334001;28;20030;-33
2023/04/15 19:58:05;;;;;;;2.53;1.20;;;;;;;17.01;49.90;96440.22;10331737;28;20033;-32
2023/04/15 20:03:06;;;;;;;3.30;1.02;;;;;;;17.01;49.98;96452.00;10325860;28;20030;-32
2023/04/15 20:08:07;;;;;;;2.65;1.13;;;;;;;17.01;49.97;96477.28;10332963;28;20046;-33
2023/04/15 20:13:07;;;;;;;2.70;1.38;;;;;;;17.01;49.80;96477.28;10324553;28;20026;-33
2023/04/15 20:18:07;;;;;;;2.97;0.90;;;;;;;17.02;49.91;96479.84;10325542;28;20067;-32
2023/04/15 20:23:08;;;;;;;3.00;1.33;;;;;;;17.00;50.26;96489.09;10338376;28;20048;-32
2023/04/15 20:28:08;;;;;;;2.20;1.43;;;;;;;17.17;55.25;96504.31;10331780;28;20849;-33
2023/04/15 20:33:08;;;;;;;2.45;1.55;;;;;;;17.24;54.86;96513.59;10336148;28;20281;-32
2023/04/15 20:38:09;;;;;;;1.80;1.07;;;;;;;17.14;50.97;96514.44;10336504;28;20038;-33
2023/04/15 20:43:09;;;;;;;1.38;0.93;;;;;;;17.07;49.67;96516.06;10327795;28;20037;-33
2023/04/15 20:48:10;;;;;;;2.53;0.97;;;;;;;17.06;51.21;96523.69;10328199;28;20566;-32
2023/04/15 20:53:10;;;;;;;2.30;1.13;;;;;;;17.03;51.38;96526.19;10335941;28;20339;-33
2023/04/15 20:58:11;;;;;;;3.22;1.67;;;;;;;17.00;51.93;96526.19;10338471;28;20890;-33
2023/04/15 21:03:11;;;;;;;2.33;1.20;;;;;;;16.99;52.82;96539.69;10343189;28;20034;-33
2023/04/15 21:08:11;;;;;;;3.10;1.10;;;;;;;16.97;52.01;96536.28;10335515;28;20129;-33
2023/04/15 21:13:14;;;;;;;2.10;1.17;;;;;;;16.96;52.53;96532.91;10327074;28;20026;-32
2023/04/15 21:18:14;;;;;;;2.13;1.23;;;;;;;16.96;52.59;96547.22;10327164;28;20245;-32
2023/04/15 21:23:14;;;;;;;2.13;1.07;;;;;;;16.94;53.28;96556.50;10335211;28;20114;-32
2023/04/15 21:28:15;;;;;;;3.67;1.30;;;;;;;16.93;52.71;96559.88;10333179;28;20129;-32
2023/04/15 21:33:16;;;;;;;2.43;1.47;;;;;;;16.92;52.83;96569.13;10335239;28;20030;-32
2023/04/15 21:38:16;;;;;;;5.55;1.40;;;;;;;16.94;56.09;96576.75;10326699;28;20053;-32
2023/04/15 21:43:17;;;;;;;3.57;1.30;;;;;;;16.99;57.26;96580.13;10326759;28;20025;-32
2023/04/15 21:48:19;;;;;;;3.95;1.25;;;;;;;17.02;57.38;96587.72;10326483;28;20034;-32
2023/04/15 21:53:19;;;;;;;2.00;1.05;;;;;;;16.92;53.99;96588.53;10326100;28;20121;-32
2023/04/15 21:58:20;;;;;;;2.27;1.10;;;;;;;16.89;54.42;96599.47;10326283;28;20476;-32
2023/04/15 22:03:20;;;;;;;1.90;1.00;;;;;;;16.87;53.77;96600.31;10325436;28;20041;-32
2023/04/15 22:08:20;;;;;;;1.47;1.07;;;;;;;16.88;53.09;96614.63;10328248;28;20057;-32
2023/04/15 22:13:21;;;;;;;1.30;1.00;;;;;;;16.88;52.91;96612.09;10333369;28;20042;-33
2023/04/15 22:18:21;;;;;;;1.93;1.10;;;;;;;16.88;52.72;96612.97;10333675;28;20497;-32
2023/04/15 22:23:21;;;;;;;1.53;0.90;;;;;;;16.87;51.49;96621.38;10341204;28;20038;-33
2023/04/15 22:28:22;;;;;;;2.53;0.90;;;;;;;16.88;52.66;96622.22;10337970;28;20046;-32
2023/04/15 22:33:22;;;;;;;3.30;1.60;;;;;;;16.89;51.92;96623.94;10332750;28;20030;-33
2023/04/15 22:38:23;;;;;;;1.43;1.13;;;;;;;16.88;52.87;96627.28;10332477;28;20504;-33
2023/04/15 22:43:24;;;;;;;1.38;1.05;;;;;;;16.88;53.16;96637.38;10332184;28;20057;-32
2023/04/15 22:48:25;;;;;;;1.90;1.00;;;;;;;16.87;51.75;96638.22;10332254;28;20541;-33
2023/04/15 22:53:25;;;;;;;3.63;1.10;;;;;;;16.92;56.71;96631.53;10331759;28;20026;-33
2023/04/15 22:58:25;;;;;;;2.10;1.10;;;;;;;16.96;57.43;96638.28;10331345;28;20030;-32
2023/04/15 23:03:26;;;;;;;2.83;1.40;;;;;;;16.96;56.12;96640.78;10331219;28;20038;-32
2023/04/15 23:08:26;;;;;;;1.67;0.93;;;;;;;16.88;55.11;96647.50;10331600;28;20045;-32
2023/04/15 23:13:26;;;;;;;1.43;0.80;;;;;;;16.87;53.25;96643.28;10337841;28;20031;-32
2023/04/15 23:18:27;;;;;;;2.07;1.13;;;;;;;16.86;53.40;96644.13;10330505;28;20521;-33